sensor_id;sensor_type;location;lat;lon;timestamp;temperature;humidity
49222;DHT22;35047;37.588;-122.048;2023-02-23T00:01:38;14.10;53.80
49222;DHT22;35047;37.588;-122.048;2023-02-23T00:04:05;14.00;54.40
49222;DHT22;35047;37.588;-122.048;2023-02-23T00:06:34;14.00;55.20
49222;DHT22;35047;37.588;-122.048;2023-02-23T00:09:05;14.00;55.10
49222;DHT22;35047;37.588;-122.048;2023-02-23T00:11:37;14.00;55.10
49222;DHT22;35047;37.588;-122.048;2023-02-23T00:14:03;13.90;55.20
49222;DHT22;35047;37.588;-122.048;2023-02-23T00:16:30;14.00;56.00
49222;DHT22;35047;37.588;-122.048;2023-02-23T00:18:57;13.90;55.80
49222;DHT22;35047;37.588;-122.048;2023-02-23T00:21:32;14.00;55.90
49222;DHT22;35047;37.588;-122.048;2023-02-23T00:24:06;14.00;54.60
49222;DHT22;35047;37.588;-122.048;2023-02-23T00:26:37;14.00;54.80
49222;DHT22;35047;37.588;-122.048;2023-02-23T00:29:12;14.00;54.90
49222;DHT22;35047;37.588;-122.048;2023-02-23T00:31:47;13.90;55.60
49222;DHT22;35047;37.588;-122.048;2023-02-23T00:34:16;13.80;54.30
49222;DHT22;35047;37.588;-122.048;2023-02-23T00:36:49;13.70;53.80
49222;DHT22;35047;37.588;-122.048;2023-02-23T00:39:16;13.60;54.80
49222;DHT22;35047;37.588;-122.048;2023-02-23T00:41:48;13.70;55.60
49222;DHT22;35047;37.588;-122.048;2023-02-23T00:44:14;13.60;54.60
49222;DHT22;35047;37.588;-122.048;2023-02-23T00:46:42;13.60;55.00
49222;DHT22;35047;37.588;-122.048;2023-02-23T00:49:10;13.60;55.40
49222;DHT22;35047;37.588;-122.048;2023-02-23T00:51:38;13.50;55.10
49222;DHT22;35047;37.588;-122.048;2023-02-23T00:54:05;13.60;55.80
49222;DHT22;35047;37.588;-122.048;2023-02-23T00:56:32;13.50;55.60
49222;DHT22;35047;37.588;-122.048;2023-02-23T00:58:58;13.50;57.20
49222;DHT22;35047;37.588;-122.048;2023-02-23T01:01:25;13.50;57.30
49222;DHT22;35047;37.588;-122.048;2023-02-23T01:03:52;13.50;58.10
49222;DHT22;35047;37.588;-122.048;2023-02-23T01:06:18;13.40;57.90
49222;DHT22;35047;37.588;-122.048;2023-02-23T01:08:47;13.30;58.20
49222;DHT22;35047;37.588;-122.048;2023-02-23T01:11:23;13.30;58.60
49222;DHT22;35047;37.588;-122.048;2023-02-23T01:13:54;13.30;58.70
49222;DHT22;35047;37.588;-122.048;2023-02-23T01:16:25;13.20;59.30
49222;DHT22;35047;37.588;-122.048;2023-02-23T01:18:54;13.20;59.70
49222;DHT22;35047;37.588;-122.048;2023-02-23T01:21:23;13.10;59.80
49222;DHT22;35047;37.588;-122.048;2023-02-23T01:23:52;13.10;59.60
49222;DHT22;35047;37.588;-122.048;2023-02-23T01:26:25;13.10;60.00
49222;DHT22;35047;37.588;-122.048;2023-02-23T01:28:57;13.00;60.60
49222;DHT22;35047;37.588;-122.048;2023-02-23T01:31:26;13.00;60.40
49222;DHT22;35047;37.588;-122.048;2023-02-23T01:33:57;13.00;60.60
49222;DHT22;35047;37.588;-122.048;2023-02-23T01:36:24;13.00;60.30
49222;DHT22;35047;37.588;-122.048;2023-02-23T01:38:51;13.10;60.60
49222;DHT22;35047;37.588;-122.048;2023-02-23T01:41:26;13.10;60.60
49222;DHT22;35047;37.588;-122.048;2023-02-23T01:46:47;12.90;60.00
49222;DHT22;35047;37.588;-122.048;2023-02-23T01:49:21;12.90;60.40
49222;DHT22;35047;37.588;-122.048;2023-02-23T01:52:02;12.90;60.90
49222;DHT22;35047;37.588;-122.048;2023-02-23T01:54:49;12.90;61.10
49222;DHT22;35047;37.588;-122.048;2023-02-23T01:57:19;12.90;61.20
49222;DHT22;35047;37.588;-122.048;2023-02-23T01:59:48;12.70;61.20
49222;DHT22;35047;37.588;-122.048;2023-02-23T02:02:17;12.50;61.10
49222;DHT22;35047;37.588;-122.048;2023-02-23T02:04:45;12.60;61.70
49222;DHT22;35047;37.588;-122.048;2023-02-23T02:07:25;12.30;60.70
49222;DHT22;35047;37.588;-122.048;2023-02-23T02:09:55;12.40;62.50
49222;DHT22;35047;37.588;-122.048;2023-02-23T02:12:38;12.50;62.60
49222;DHT22;35047;37.588;-122.048;2023-02-23T02:15:08;12.50;61.70
49222;DHT22;35047;37.588;-122.048;2023-02-23T02:26:36;12.60;62.60
49222;DHT22;35047;37.588;-122.048;2023-02-23T02:40:36;12.70;62.00
49222;DHT22;35047;37.588;-122.048;2023-02-23T02:46:15;12.30;63.60
49222;DHT22;35047;37.588;-122.048;2023-02-23T02:56:40;11.90;65.30
49222;DHT22;35047;37.588;-122.048;2023-02-23T02:59:15;12.10;64.70
49222;DHT22;35047;37.588;-122.048;2023-02-23T03:02:01;11.90;64.40
49222;DHT22;35047;37.588;-122.048;2023-02-23T03:04:47;12.10;64.80
49222;DHT22;35047;37.588;-122.048;2023-02-23T03:08:05;12.30;65.00
49222;DHT22;35047;37.588;-122.048;2023-02-23T03:19:35;12.40;64.30
49222;DHT22;35047;37.588;-122.048;2023-02-23T03:22:33;12.40;63.20
49222;DHT22;35047;37.588;-122.048;2023-02-23T03:25:49;12.30;63.70
49222;DHT22;35047;37.588;-122.048;2023-02-23T03:31:54;12.20;64.70
49222;DHT22;35047;37.588;-122.048;2023-02-23T03:34:47;12.30;64.10
49222;DHT22;35047;37.588;-122.048;2023-02-23T03:37:41;12.00;65.00
49222;DHT22;35047;37.588;-122.048;2023-02-23T03:40:34;12.20;65.20
49222;DHT22;35047;37.588;-122.048;2023-02-23T03:44:10;12.20;65.20
49222;DHT22;35047;37.588;-122.048;2023-02-23T03:46:35;12.20;65.80
49222;DHT22;35047;37.588;-122.048;2023-02-23T03:49:23;12.00;65.50
49222;DHT22;35047;37.588;-122.048;2023-02-23T03:52:19;12.10;65.20
49222;DHT22;35047;37.588;-122.048;2023-02-23T03:55:18;12.10;66.20
49222;DHT22;35047;37.588;-122.048;2023-02-23T03:58:07;12.20;66.80
49222;DHT22;35047;37.588;-122.048;2023-02-23T04:00:55;11.70;65.90
49222;DHT22;35047;37.588;-122.048;2023-02-23T04:03:44;11.40;66.80
49222;DHT22;35047;37.588;-122.048;2023-02-23T04:06:35;11.60;68.40
49222;DHT22;35047;37.588;-122.048;2023-02-23T04:09:21;11.60;67.80
49222;DHT22;35047;37.588;-122.048;2023-02-23T04:12:32;11.80;67.70
49222;DHT22;35047;37.588;-122.048;2023-02-23T04:15:32;12.00;66.80
49222;DHT22;35047;37.588;-122.048;2023-02-23T04:17:59;11.80;67.70
49222;DHT22;35047;37.588;-122.048;2023-02-23T04:20:28;12.10;67.90
49222;DHT22;35047;37.588;-122.048;2023-02-23T04:22:55;11.80;67.10
49222;DHT22;35047;37.588;-122.048;2023-02-23T04:25:22;12.00;68.10
49222;DHT22;35047;37.588;-122.048;2023-02-23T04:27:49;12.00;67.70
49222;DHT22;35047;37.588;-122.048;2023-02-23T04:30:17;12.10;67.90
49222;DHT22;35047;37.588;-122.048;2023-02-23T04:32:45;12.20;66.20
49222;DHT22;35047;37.588;-122.048;2023-02-23T04:35:12;12.10;67.10
49222;DHT22;35047;37.588;-122.048;2023-02-23T04:37:39;12.00;66.20
49222;DHT22;35047;37.588;-122.048;2023-02-23T04:40:06;11.90;66.80
49222;DHT22;35047;37.588;-122.048;2023-02-23T04:42:32;12.10;68.00
49222;DHT22;35047;37.588;-122.048;2023-02-23T04:44:59;11.80;65.20
49222;DHT22;35047;37.588;-122.048;2023-02-23T04:47:25;12.00;66.70
49222;DHT22;35047;37.588;-122.048;2023-02-23T04:49:52;12.10;67.30
49222;DHT22;35047;37.588;-122.048;2023-02-23T04:52:19;12.10;65.40
49222;DHT22;35047;37.588;-122.048;2023-02-23T04:54:45;12.20;68.10
49222;DHT22;35047;37.588;-122.048;2023-02-23T04:57:12;12.00;69.50
49222;DHT22;35047;37.588;-122.048;2023-02-23T04:59:38;12.00;71.60
49222;DHT22;35047;37.588;-122.048;2023-02-23T05:02:05;11.70;69.80
49222;DHT22;35047;37.588;-122.048;2023-02-23T05:04:32;11.40;69.70
49222;DHT22;35047;37.588;-122.048;2023-02-23T05:07:00;11.30;72.00
49222;DHT22;35047;37.588;-122.048;2023-02-23T05:09:29;10.90;70.10
49222;DHT22;35047;37.588;-122.048;2023-02-23T05:11:56;10.70;71.40
49222;DHT22;35047;37.588;-122.048;2023-02-23T05:14:22;10.80;71.80
49222;DHT22;35047;37.588;-122.048;2023-02-23T05:16:50;10.90;73.10
49222;DHT22;35047;37.588;-122.048;2023-02-23T05:19:17;11.10;74.50
49222;DHT22;35047;37.588;-122.048;2023-02-23T05:21:44;11.20;72.40
49222;DHT22;35047;37.588;-122.048;2023-02-23T05:24:10;10.90;71.00
49222;DHT22;35047;37.588;-122.048;2023-02-23T05:26:37;10.90;70.80
49222;DHT22;35047;37.588;-122.048;2023-02-23T05:29:04;11.00;72.40
49222;DHT22;35047;37.588;-122.048;2023-02-23T05:31:31;11.00;72.00
49222;DHT22;35047;37.588;-122.048;2023-02-23T05:33:58;11.10;75.10
49222;DHT22;35047;37.588;-122.048;2023-02-23T05:36:24;10.90;70.80
49222;DHT22;35047;37.588;-122.048;2023-02-23T05:38:51;11.10;75.10
49222;DHT22;35047;37.588;-122.048;2023-02-23T05:41:20;11.40;73.30
49222;DHT22;35047;37.588;-122.048;2023-02-23T05:43:47;11.40;75.30
49222;DHT22;35047;37.588;-122.048;2023-02-23T05:46:20;11.60;75.70
49222;DHT22;35047;37.588;-122.048;2023-02-23T05:48:47;11.80;75.60
49222;DHT22;35047;37.588;-122.048;2023-02-23T05:51:15;11.90;75.30
49222;DHT22;35047;37.588;-122.048;2023-02-23T05:53:42;12.00;74.90
49222;DHT22;35047;37.588;-122.048;2023-02-23T05:56:13;12.10;74.40
49222;DHT22;35047;37.588;-122.048;2023-02-23T05:58:49;12.20;74.80
49222;DHT22;35047;37.588;-122.048;2023-02-23T06:01:16;12.30;75.00
49222;DHT22;35047;37.588;-122.048;2023-02-23T06:03:43;12.30;75.10
49222;DHT22;35047;37.588;-122.048;2023-02-23T06:06:10;12.40;74.60
49222;DHT22;35047;37.588;-122.048;2023-02-23T06:08:37;12.40;74.70
49222;DHT22;35047;37.588;-122.048;2023-02-23T06:11:04;12.40;74.90
49222;DHT22;35047;37.588;-122.048;2023-02-23T06:13:31;12.20;73.30
49222;DHT22;35047;37.588;-122.048;2023-02-23T06:15:59;12.00;72.90
49222;DHT22;35047;37.588;-122.048;2023-02-23T06:18:25;12.00;74.20
49222;DHT22;35047;37.588;-122.048;2023-02-23T06:20:52;11.80;70.70
49222;DHT22;35047;37.588;-122.048;2023-02-23T06:23:19;11.60;72.10
49222;DHT22;35047;37.588;-122.048;2023-02-23T06:25:46;11.70;75.60
49222;DHT22;35047;37.588;-122.048;2023-02-23T06:28:12;11.90;75.20
49222;DHT22;35047;37.588;-122.048;2023-02-23T06:30:40;11.90;74.90
49222;DHT22;35047;37.588;-122.048;2023-02-23T06:33:07;12.00;74.60
49222;DHT22;35047;37.588;-122.048;2023-02-23T06:35:34;12.00;73.80
49222;DHT22;35047;37.588;-122.048;2023-02-23T06:38:01;12.10;74.00
49222;DHT22;35047;37.588;-122.048;2023-02-23T06:40:27;12.20;74.00
49222;DHT22;35047;37.588;-122.048;2023-02-23T06:42:54;12.20;73.80
49222;DHT22;35047;37.588;-122.048;2023-02-23T06:45:20;12.20;73.80
49222;DHT22;35047;37.588;-122.048;2023-02-23T06:47:47;12.20;73.70
49222;DHT22;35047;37.588;-122.048;2023-02-23T06:50:14;12.30;74.50
49222;DHT22;35047;37.588;-122.048;2023-02-23T06:52:41;12.30;74.00
49222;DHT22;35047;37.588;-122.048;2023-02-23T06:55:08;12.30;74.70
49222;DHT22;35047;37.588;-122.048;2023-02-23T06:57:35;12.30;74.30
49222;DHT22;35047;37.588;-122.048;2023-02-23T07:00:02;12.30;74.20
49222;DHT22;35047;37.588;-122.048;2023-02-23T07:02:29;12.30;73.90
49222;DHT22;35047;37.588;-122.048;2023-02-23T07:04:56;12.30;73.60
49222;DHT22;35047;37.588;-122.048;2023-02-23T07:07:23;12.30;74.20
49222;DHT22;35047;37.588;-122.048;2023-02-23T07:09:51;12.30;74.00
49222;DHT22;35047;37.588;-122.048;2023-02-23T07:12:20;12.30;73.80
49222;DHT22;35047;37.588;-122.048;2023-02-23T07:14:47;12.30;74.20
49222;DHT22;35047;37.588;-122.048;2023-02-23T07:17:13;12.30;73.90
49222;DHT22;35047;37.588;-122.048;2023-02-23T07:19:40;12.40;73.00
49222;DHT22;35047;37.588;-122.048;2023-02-23T07:22:06;12.20;73.30
49222;DHT22;35047;37.588;-122.048;2023-02-23T07:24:33;12.20;74.00
49222;DHT22;35047;37.588;-122.048;2023-02-23T07:26:59;12.20;74.00
49222;DHT22;35047;37.588;-122.048;2023-02-23T07:29:26;12.20;73.90
49222;DHT22;35047;37.588;-122.048;2023-02-23T07:31:53;12.10;74.00
49222;DHT22;35047;37.588;-122.048;2023-02-23T07:34:20;12.20;75.10
49222;DHT22;35047;37.588;-122.048;2023-02-23T07:36:46;12.20;74.80
49222;DHT22;35047;37.588;-122.048;2023-02-23T07:39:13;12.20;73.50
49222;DHT22;35047;37.588;-122.048;2023-02-23T07:41:39;12.10;71.00
49222;DHT22;35047;37.588;-122.048;2023-02-23T07:44:06;11.70;71.50
49222;DHT22;35047;37.588;-122.048;2023-02-23T07:46:33;11.60;72.50
49222;DHT22;35047;37.588;-122.048;2023-02-23T07:48:59;11.80;76.60
49222;DHT22;35047;37.588;-122.048;2023-02-23T07:51:26;11.80;73.20
49222;DHT22;35047;37.588;-122.048;2023-02-23T07:53:53;11.90;75.80
49222;DHT22;35047;37.588;-122.048;2023-02-23T07:56:21;11.30;73.30
49222;DHT22;35047;37.588;-122.048;2023-02-23T07:58:47;11.30;76.30
49222;DHT22;35047;37.588;-122.048;2023-02-23T08:01:14;11.10;73.60
49222;DHT22;35047;37.588;-122.048;2023-02-23T08:03:40;11.10;76.20
49222;DHT22;35047;37.588;-122.048;2023-02-23T08:06:15;11.00;74.30
49222;DHT22;35047;37.588;-122.048;2023-02-23T08:08:42;10.80;74.40
49222;DHT22;35047;37.588;-122.048;2023-02-23T08:11:08;10.60;75.10
49222;DHT22;35047;37.588;-122.048;2023-02-23T08:13:36;10.60;74.90
49222;DHT22;35047;37.588;-122.048;2023-02-23T08:16:03;10.30;74.90
49222;DHT22;35047;37.588;-122.048;2023-02-23T08:18:29;10.20;77.10
49222;DHT22;35047;37.588;-122.048;2023-02-23T08:21:03;10.40;77.10
49222;DHT22;35047;37.588;-122.048;2023-02-23T08:23:31;10.10;78.20
49222;DHT22;35047;37.588;-122.048;2023-02-23T08:26:00;10.20;76.80
49222;DHT22;35047;37.588;-122.048;2023-02-23T08:28:28;10.10;78.20
49222;DHT22;35047;37.588;-122.048;2023-02-23T08:30:54;10.30;80.00
49222;DHT22;35047;37.588;-122.048;2023-02-23T08:33:22;10.10;78.30
49222;DHT22;35047;37.588;-122.048;2023-02-23T08:35:49;9.90;79.60
49222;DHT22;35047;37.588;-122.048;2023-02-23T08:38:15;9.90;79.90
49222;DHT22;35047;37.588;-122.048;2023-02-23T08:40:43;10.00;82.00
49222;DHT22;35047;37.588;-122.048;2023-02-23T08:43:09;10.00;79.50
49222;DHT22;35047;37.588;-122.048;2023-02-23T08:45:36;9.80;78.60
49222;DHT22;35047;37.588;-122.048;2023-02-23T08:48:05;9.80;80.20
49222;DHT22;35047;37.588;-122.048;2023-02-23T08:50:32;9.80;78.90
49222;DHT22;35047;37.588;-122.048;2023-02-23T08:52:59;9.90;81.00
49222;DHT22;35047;37.588;-122.048;2023-02-23T08:55:25;10.00;80.30
49222;DHT22;35047;37.588;-122.048;2023-02-23T08:57:52;10.20;80.60
49222;DHT22;35047;37.588;-122.048;2023-02-23T09:00:19;10.20;77.80
49222;DHT22;35047;37.588;-122.048;2023-02-23T09:02:46;10.20;78.10
49222;DHT22;35047;37.588;-122.048;2023-02-23T09:05:13;10.10;78.20
49222;DHT22;35047;37.588;-122.048;2023-02-23T09:07:40;9.90;79.60
49222;DHT22;35047;37.588;-122.048;2023-02-23T09:10:13;9.90;79.80
49222;DHT22;35047;37.588;-122.048;2023-02-23T09:12:39;10.30;81.10
49222;DHT22;35047;37.588;-122.048;2023-02-23T09:15:06;10.50;80.10
49222;DHT22;35047;37.588;-122.048;2023-02-23T09:17:33;10.60;79.10
49222;DHT22;35047;37.588;-122.048;2023-02-23T09:19:59;10.40;78.00
49222;DHT22;35047;37.588;-122.048;2023-02-23T09:22:27;10.50;75.70
49222;DHT22;35047;37.588;-122.048;2023-02-23T09:24:53;10.30;75.60
49222;DHT22;35047;37.588;-122.048;2023-02-23T09:27:20;10.10;77.80
49222;DHT22;35047;37.588;-122.048;2023-02-23T09:29:46;10.20;76.70
49222;DHT22;35047;37.588;-122.048;2023-02-23T09:32:13;10.10;77.30
49222;DHT22;35047;37.588;-122.048;2023-02-23T09:34:41;10.20;78.30
49222;DHT22;35047;37.588;-122.048;2023-02-23T09:37:07;10.50;79.30
49222;DHT22;35047;37.588;-122.048;2023-02-23T09:39:34;10.60;78.30
49222;DHT22;35047;37.588;-122.048;2023-02-23T09:42:41;10.80;79.00
49222;DHT22;35047;37.588;-122.048;2023-02-23T09:45:11;11.00;78.30
49222;DHT22;35047;37.588;-122.048;2023-02-23T09:50:31;11.30;76.30
49222;DHT22;35047;37.588;-122.048;2023-02-23T09:55:39;11.50;75.80
49222;DHT22;35047;37.588;-122.048;2023-02-23T09:58:24;11.60;76.10
49222;DHT22;35047;37.588;-122.048;2023-02-23T10:03:35;11.70;76.00
49222;DHT22;35047;37.588;-122.048;2023-02-23T10:06:07;11.70;75.60
49222;DHT22;35047;37.588;-122.048;2023-02-23T10:11:20;11.80;75.70
49222;DHT22;35047;37.588;-122.048;2023-02-23T10:16:44;11.80;75.20
49222;DHT22;35047;37.588;-122.048;2023-02-23T10:20:12;11.80;74.70
49222;DHT22;35047;37.588;-122.048;2023-02-23T10:22:34;11.80;74.20
49222;DHT22;35047;37.588;-122.048;2023-02-23T10:25:19;11.80;74.10
49222;DHT22;35047;37.588;-122.048;2023-02-23T10:27:49;11.80;74.00
49222;DHT22;35047;37.588;-122.048;2023-02-23T10:30:25;11.80;74.30
49222;DHT22;35047;37.588;-122.048;2023-02-23T10:35:38;11.70;74.00
49222;DHT22;35047;37.588;-122.048;2023-02-23T10:38:07;11.70;74.30
49222;DHT22;35047;37.588;-122.048;2023-02-23T10:40:34;11.70;74.60
49222;DHT22;35047;37.588;-122.048;2023-02-23T10:43:01;11.70;74.70
49222;DHT22;35047;37.588;-122.048;2023-02-23T10:45:33;11.70;74.70
49222;DHT22;35047;37.588;-122.048;2023-02-23T10:48:12;11.70;74.70
49222;DHT22;35047;37.588;-122.048;2023-02-23T10:50:42;11.70;74.70
49222;DHT22;35047;37.588;-122.048;2023-02-23T10:55:44;11.70;74.90
49222;DHT22;35047;37.588;-122.048;2023-02-23T10:58:14;11.70;75.30
49222;DHT22;35047;37.588;-122.048;2023-02-23T11:00:59;11.70;75.50
49222;DHT22;35047;37.588;-122.048;2023-02-23T11:03:31;11.70;75.70
49222;DHT22;35047;37.588;-122.048;2023-02-23T11:05:59;11.70;76.60
49222;DHT22;35047;37.588;-122.048;2023-02-23T11:08:36;11.70;76.00
49222;DHT22;35047;37.588;-122.048;2023-02-23T11:13:41;11.70;76.20
49222;DHT22;35047;37.588;-122.048;2023-02-23T11:21:31;11.70;76.40
49222;DHT22;35047;37.588;-122.048;2023-02-23T11:26:52;11.70;76.50
49222;DHT22;35047;37.588;-122.048;2023-02-23T11:29:30;11.70;76.50
49222;DHT22;35047;37.588;-122.048;2023-02-23T11:32:18;11.70;76.60
49222;DHT22;35047;37.588;-122.048;2023-02-23T11:34:46;11.70;76.60
49222;DHT22;35047;37.588;-122.048;2023-02-23T11:37:21;11.70;76.50
49222;DHT22;35047;37.588;-122.048;2023-02-23T11:40:07;11.70;76.60
49222;DHT22;35047;37.588;-122.048;2023-02-23T11:43:05;11.80;77.30
49222;DHT22;35047;37.588;-122.048;2023-02-23T11:45:49;11.80;76.80
49222;DHT22;35047;37.588;-122.048;2023-02-23T11:50:49;11.80;77.60
49222;DHT22;35047;37.588;-122.048;2023-02-23T11:53:18;11.80;77.90
49222;DHT22;35047;37.588;-122.048;2023-02-23T11:55:50;11.80;78.00
49222;DHT22;35047;37.588;-122.048;2023-02-23T11:58:47;11.80;77.40
49222;DHT22;35047;37.588;-122.048;2023-02-23T12:01:19;11.80;76.10
49222;DHT22;35047;37.588;-122.048;2023-02-23T12:03:54;11.80;77.40
49222;DHT22;35047;37.588;-122.048;2023-02-23T12:06:33;11.70;77.80
49222;DHT22;35047;37.588;-122.048;2023-02-23T12:09:25;11.20;74.70
49222;DHT22;35047;37.588;-122.048;2023-02-23T12:12:08;11.20;76.10
49222;DHT22;35047;37.588;-122.048;2023-02-23T12:14:40;11.30;78.30
49222;DHT22;35047;37.588;-122.048;2023-02-23T12:17:27;11.20;75.40
49222;DHT22;35047;37.588;-122.048;2023-02-23T12:22:50;11.00;76.70
49222;DHT22;35047;37.588;-122.048;2023-02-23T12:32:01;11.30;77.90
49222;DHT22;35047;37.588;-122.048;2023-02-23T12:34:43;11.40;77.40
49222;DHT22;35047;37.588;-122.048;2023-02-23T12:39:46;11.40;76.40
49222;DHT22;35047;37.588;-122.048;2023-02-23T12:42:35;11.50;76.40
49222;DHT22;35047;37.588;-122.048;2023-02-23T12:45:16;11.50;76.10
49222;DHT22;35047;37.588;-122.048;2023-02-23T12:50:51;11.40;76.20
49222;DHT22;35047;37.588;-122.048;2023-02-23T12:59:18;11.40;75.00
49222;DHT22;35047;37.588;-122.048;2023-02-23T13:01:57;11.30;76.90
49222;DHT22;35047;37.588;-122.048;2023-02-23T13:13:11;11.20;76.30
49222;DHT22;35047;37.588;-122.048;2023-02-23T13:18:32;11.20;76.60
49222;DHT22;35047;37.588;-122.048;2023-02-23T13:29:27;11.30;76.30
49222;DHT22;35047;37.588;-122.048;2023-02-23T13:31:58;11.20;75.90
49222;DHT22;35047;37.588;-122.048;2023-02-23T13:34:41;11.20;76.00
49222;DHT22;35047;37.588;-122.048;2023-02-23T13:37:10;11.20;76.20
49222;DHT22;35047;37.588;-122.048;2023-02-23T13:42:52;11.30;76.20
49222;DHT22;35047;37.588;-122.048;2023-02-23T13:45:39;11.20;76.00
49222;DHT22;35047;37.588;-122.048;2023-02-23T13:51:08;11.20;75.80
49222;DHT22;35047;37.588;-122.048;2023-02-23T13:53:57;11.20;75.90
49222;DHT22;35047;37.588;-122.048;2023-02-23T13:56:29;11.10;75.90
49222;DHT22;35047;37.588;-122.048;2023-02-23T13:59:01;11.10;76.20
49222;DHT22;35047;37.588;-122.048;2023-02-23T14:01:35;11.10;76.40
49222;DHT22;35047;37.588;-122.048;2023-02-23T14:04:12;11.00;75.70
49222;DHT22;35047;37.588;-122.048;2023-02-23T14:09:42;11.00;76.20
49222;DHT22;35047;37.588;-122.048;2023-02-23T14:12:15;11.10;77.60
49222;DHT22;35047;37.588;-122.048;2023-02-23T14:14:45;11.10;77.30
49222;DHT22;35047;37.588;-122.048;2023-02-23T14:22:32;11.10;77.30
49222;DHT22;35047;37.588;-122.048;2023-02-23T14:28:21;11.20;77.30
49222;DHT22;35047;37.588;-122.048;2023-02-23T14:31:35;11.00;75.80
49222;DHT22;35047;37.588;-122.048;2023-02-23T14:41:29;10.60;80.10
49222;DHT22;35047;37.588;-122.048;2023-02-23T14:46:36;10.80;79.50
49222;DHT22;35047;37.588;-122.048;2023-02-23T14:49:36;10.50;76.80
49222;DHT22;35047;37.588;-122.048;2023-02-23T14:52:08;10.70;81.00
49222;DHT22;35047;37.588;-122.048;2023-02-23T14:54:39;10.80;80.80
49222;DHT22;35047;37.588;-122.048;2023-02-23T14:57:17;10.40;74.80
49222;DHT22;35047;37.588;-122.048;2023-02-23T14:59:45;9.90;76.30
49222;DHT22;35047;37.588;-122.048;2023-02-23T15:02:19;9.60;77.30
49222;DHT22;35047;37.588;-122.048;2023-02-23T15:04:46;9.30;81.00
49222;DHT22;35047;37.588;-122.048;2023-02-23T15:07:20;8.90;80.20
49222;DHT22;35047;37.588;-122.048;2023-02-23T15:09:52;8.70;81.80
49222;DHT22;35047;37.588;-122.048;2023-02-23T15:12:22;9.10;83.70
49222;DHT22;35047;37.588;-122.048;2023-02-23T15:14:55;9.40;85.00
49222;DHT22;35047;37.588;-122.048;2023-02-23T15:17:24;9.70;83.30
49222;DHT22;35047;37.588;-122.048;2023-02-23T15:19:59;9.90;82.50
49222;DHT22;35047;37.588;-122.048;2023-02-23T15:22:29;10.20;83.60
49222;DHT22;35047;37.588;-122.048;2023-02-23T15:25:00;10.30;79.30
49222;DHT22;35047;37.588;-122.048;2023-02-23T15:27:37;10.10;78.40
49222;DHT22;35047;37.588;-122.048;2023-02-23T15:30:30;10.10;82.30
49222;DHT22;35047;37.588;-122.048;2023-02-23T15:33:04;10.40;81.90
49222;DHT22;35047;37.588;-122.048;2023-02-23T15:35:35;10.50;81.50
49222;DHT22;35047;37.588;-122.048;2023-02-23T15:38:08;10.60;82.10
49222;DHT22;35047;37.588;-122.048;2023-02-23T15:40:34;10.80;81.50
49222;DHT22;35047;37.588;-122.048;2023-02-23T15:43:15;10.80;78.70
49222;DHT22;35047;37.588;-122.048;2023-02-23T15:45:47;11.00;81.30
49222;DHT22;35047;37.588;-122.048;2023-02-23T15:48:20;10.90;77.30
49222;DHT22;35047;37.588;-122.048;2023-02-23T15:50:50;10.90;79.20
49222;DHT22;35047;37.588;-122.048;2023-02-23T15:53:38;11.10;80.70
49222;DHT22;35047;37.588;-122.048;2023-02-23T15:56:15;10.80;79.20
49222;DHT22;35047;37.588;-122.048;2023-02-23T15:58:50;10.90;80.40
49222;DHT22;35047;37.588;-122.048;2023-02-23T16:01:30;11.00;81.60
49222;DHT22;35047;37.588;-122.048;2023-02-23T16:04:05;11.10;81.00
49222;DHT22;35047;37.588;-122.048;2023-02-23T16:06:35;10.90;76.60
49222;DHT22;35047;37.588;-122.048;2023-02-23T16:09:14;10.80;77.00
49222;DHT22;35047;37.588;-122.048;2023-02-23T16:12:02;10.40;77.60
49222;DHT22;35047;37.588;-122.048;2023-02-23T16:14:34;10.30;78.60
49222;DHT22;35047;37.588;-122.048;2023-02-23T16:20:15;10.50;84.40
49222;DHT22;35047;37.588;-122.048;2023-02-23T16:22:44;10.80;84.30
49222;DHT22;35047;37.588;-122.048;2023-02-23T16:25:14;10.90;82.90
49222;DHT22;35047;37.588;-122.048;2023-02-23T16:27:42;10.90;80.70
49222;DHT22;35047;37.588;-122.048;2023-02-23T16:30:21;10.80;79.90
49222;DHT22;35047;37.588;-122.048;2023-02-23T16:35:48;11.20;81.00
49222;DHT22;35047;37.588;-122.048;2023-02-23T16:41:29;11.40;79.20
49222;DHT22;35047;37.588;-122.048;2023-02-23T16:43:58;11.30;78.00
49222;DHT22;35047;37.588;-122.048;2023-02-23T16:46:29;11.50;81.50
49222;DHT22;35047;37.588;-122.048;2023-02-23T16:48:56;11.30;76.30
49222;DHT22;35047;37.588;-122.048;2023-02-23T16:51:35;11.30;76.30
49222;DHT22;35047;37.588;-122.048;2023-02-23T16:54:01;11.00;77.00
49222;DHT22;35047;37.588;-122.048;2023-02-23T16:56:29;11.00;78.20
49222;DHT22;35047;37.588;-122.048;2023-02-23T16:59:00;11.00;76.50
49222;DHT22;35047;37.588;-122.048;2023-02-23T17:01:27;10.80;76.00
49222;DHT22;35047;37.588;-122.048;2023-02-23T17:03:53;10.90;77.10
49222;DHT22;35047;37.588;-122.048;2023-02-23T17:06:21;10.90;76.80
49222;DHT22;35047;37.588;-122.048;2023-02-23T17:08:47;10.90;78.70
49222;DHT22;35047;37.588;-122.048;2023-02-23T17:11:15;11.00;79.80
49222;DHT22;35047;37.588;-122.048;2023-02-23T17:13:42;10.90;75.40
49222;DHT22;35047;37.588;-122.048;2023-02-23T17:16:10;10.80;78.30
49222;DHT22;35047;37.588;-122.048;2023-02-23T17:18:38;11.00;81.70
49222;DHT22;35047;37.588;-122.048;2023-02-23T17:21:08;11.50;82.90
49222;DHT22;35047;37.588;-122.048;2023-02-23T17:23:37;11.80;78.40
49222;DHT22;35047;37.588;-122.048;2023-02-23T17:26:05;11.80;73.60
49222;DHT22;35047;37.588;-122.048;2023-02-23T17:28:32;12.20;76.80
49222;DHT22;35047;37.588;-122.048;2023-02-23T17:30:59;12.70;81.70
49222;DHT22;35047;37.588;-122.048;2023-02-23T17:33:27;13.10;78.80
49222;DHT22;35047;37.588;-122.048;2023-02-23T17:35:54;13.30;75.60
49222;DHT22;35047;37.588;-122.048;2023-02-23T17:38:20;13.30;71.30
49222;DHT22;35047;37.588;-122.048;2023-02-23T17:40:48;13.50;69.50
49222;DHT22;35047;37.588;-122.048;2023-02-23T17:43:15;13.40;69.60
49222;DHT22;35047;37.588;-122.048;2023-02-23T17:45:42;13.60;71.80
49222;DHT22;35047;37.588;-122.048;2023-02-23T17:48:08;14.10;76.50
49222;DHT22;35047;37.588;-122.048;2023-02-23T17:50:35;14.40;76.10
49222;DHT22;35047;37.588;-122.048;2023-02-23T17:53:02;14.70;70.80
49222;DHT22;35047;37.588;-122.048;2023-02-23T17:55:29;14.70;68.50